Strona główna
METAR-TAF:

METAR-TAF

Lotnisko :

Beauvechain, Belgia

Szerokość geograficzna: 50-45N, Długość geograficzna: 004-46E, wysokość: 105 m

Aktualna obserwacja pogody

Raport powstał 22 minut temu, godzina 05:21 UTC
Wiatr 8 kt od północny wschód
Temperatura 10°C
Wilgotność 71%
Ciśnienie 1033 hPa
Widzialność 10 km lub więcej
bezchmurnie

METAR: EBBE 280521Z 05008KT 9999 SKC 10/05 Q1033 BLU BLU

czas: 07:43 (05:43 UTC)

Prognoza

Raport powstał 14 godziny i 2 minut temu, godzina 15:41 UTC
Prognoza ważna od 27 godzina 19 UTC do 28 godzina 07 UTC
Wiatr 10 kt od północ
Widzialność 10 km lub więcej
Rozproszone chmury na wysokości 8000 ft
Stopniowe zmiany
od 28 godzina 02 UTC do 28 godzina 04 UTC
Rozproszone chmury na wysokości 25000 ft

TAF: EBBE 271541Z 2719/2807 35010KT 9999 SCT080 BECMG 2802/2804 SCT250

Obserwacja i prognoza pogody dla ponad 4000 lotnisk (raport METAR i TAF).

Dostępne stacje oznaczono żółtymi i czerwonymi punktami na mapie.

Najedź kursorem aby zobaczyć nazwę stacji.

Kliknij aby zobaczyć obserwacje i prognozy pogody.

Aby zmienić mapę: kliknij na zielony przycisk z czarnym krzyżykiem, aby powiększyć; na zielony przycisk z myślnikiem, aby pomniejszyć; na zielone strzałki, aby przejść do map sąsiednich.


METAR-TAF: